createdAt,value
2022-08-17T00:01:45.547Z,4.68
2022-08-17T00:04:20.497Z,5.25
2022-08-17T00:06:49.225Z,5.22
2022-08-17T00:09:18.952Z,4.55
2022-08-17T00:12:43.683Z,4.88
2022-08-17T00:14:34.950Z,4.80
2022-08-17T00:17:03.883Z,4.95
2022-08-17T00:19:32.683Z,5.20
2022-08-17T00:22:31.591Z,5.07
2022-08-17T00:24:49.953Z,4.82
2022-08-17T00:27:17.294Z,4.72
2022-08-17T00:29:45.839Z,4.47
2022-08-17T00:33:14.104Z,4.97
2022-08-17T00:35:04.319Z,5.05
2022-08-17T00:37:31.468Z,4.90
2022-08-17T00:39:58.722Z,5.00
2022-08-17T00:42:30.814Z,4.82
2022-08-17T00:44:58.545Z,4.72
2022-08-17T00:47:25.784Z,5.05
2022-08-17T00:49:53.020Z,4.88
2022-08-17T00:52:23.307Z,5.13
2022-08-17T00:54:52.583Z,4.65
2022-08-17T00:57:21.956Z,5.07
2022-08-17T01:00:03.264Z,4.90
2022-08-17T01:02:34.375Z,5.25
2022-08-17T01:05:09.918Z,4.78
2022-08-17T01:07:38.107Z,4.70
2022-08-17T01:10:06.702Z,4.78
2022-08-17T01:12:35.084Z,4.90
2022-08-17T01:15:02.246Z,5.25
2022-08-17T01:17:29.748Z,5.28
2022-08-17T01:19:57.124Z,4.93
2022-08-17T01:22:25.410Z,5.13
2022-08-17T01:25:01.023Z,5.43
2022-08-17T01:27:28.599Z,5.45
2022-08-17T01:29:58.592Z,4.93
2022-08-17T01:32:26.954Z,5.80
2022-08-17T01:34:54.294Z,4.57
2022-08-17T01:37:28.009Z,5.28
2022-08-17T01:39:58.188Z,5.15
2022-08-17T01:42:25.416Z,5.35
2022-08-17T01:44:54.699Z,5.43
2022-08-17T01:47:21.965Z,5.30
2022-08-17T01:49:49.530Z,5.18
2022-08-17T01:52:17.135Z,5.18
2022-08-17T01:54:46.272Z,5.13
2022-08-17T01:57:13.485Z,5.80
2022-08-17T01:59:40.703Z,5.13
2022-08-17T02:02:08.710Z,5.47
2022-08-17T02:04:35.920Z,5.82
2022-08-17T02:07:03.063Z,5.45
2022-08-17T02:09:32.093Z,5.35
2022-08-17T02:11:59.999Z,5.82
2022-08-17T02:14:47.204Z,5.05
2022-08-17T02:17:14.320Z,5.32
2022-08-17T02:19:41.868Z,5.00
2022-08-17T02:22:09.028Z,5.22
2022-08-17T02:24:59.992Z,4.78
2022-08-17T02:27:25.521Z,5.80
2022-08-17T02:29:52.759Z,4.88
2022-08-17T02:32:27.419Z,5.40
2022-08-17T02:34:55.785Z,5.15
2022-08-17T02:37:22.933Z,5.10
2022-08-17T02:39:50.215Z,5.28
2022-08-17T02:42:18.331Z,4.85
2022-08-17T02:44:45.520Z,4.47
2022-08-17T02:47:12.753Z,5.20
2022-08-17T02:49:39.968Z,4.97
2022-08-17T02:52:08.391Z,5.07
2022-08-17T02:54:40.415Z,5.45
2022-08-17T02:57:09.425Z,4.80
2022-08-17T02:59:36.539Z,5.60
2022-08-17T03:02:04.562Z,5.18
2022-08-17T03:04:31.760Z,4.97
2022-08-17T03:07:02.455Z,5.10
2022-08-17T03:09:29.674Z,5.13
2022-08-17T03:12:04.160Z,5.35
2022-08-17T03:14:32.448Z,5.50
2022-08-17T03:16:59.627Z,4.95
2022-08-17T03:19:26.835Z,5.43
2022-08-17T03:21:55.216Z,5.05
2022-08-17T03:24:25.136Z,5.22
2022-08-17T03:26:56.299Z,5.15
2022-08-17T03:29:23.447Z,5.13
2022-08-17T03:31:50.828Z,4.93
2022-08-17T03:34:18.761Z,5.40
2022-08-17T03:36:45.952Z,4.88
2022-08-17T03:39:13.109Z,5.38
2022-08-17T03:41:40.239Z,5.20
2022-08-17T03:44:07.419Z,5.97
2022-08-17T03:46:53.312Z,5.07
2022-08-17T03:49:39.183Z,5.35
2022-08-17T03:52:25.144Z,5.80
2022-08-17T03:55:11.155Z,5.45
2022-08-17T03:57:38.362Z,5.18
2022-08-17T04:00:05.843Z,5.50
2022-08-17T04:02:34.226Z,5.60
2022-08-17T04:05:01.572Z,5.40
2022-08-17T04:07:29.660Z,5.60
2022-08-17T04:09:58.061Z,6.15
2022-08-17T04:12:26.186Z,5.72
2022-08-17T04:14:54.883Z,5.47
2022-08-17T04:17:25.966Z,5.80
2022-08-17T04:19:53.656Z,5.30
2022-08-17T04:22:31.346Z,5.50
2022-08-17T04:25:09.550Z,5.13
2022-08-17T04:27:37.168Z,5.47
2022-08-17T04:30:06.902Z,5.50
2022-08-17T04:33:03.409Z,5.10
2022-08-17T04:35:22.447Z,5.25
2022-08-17T04:37:49.731Z,4.72
2022-08-17T04:40:35.747Z,4.95
2022-08-17T04:43:07.572Z,5.18
2022-08-17T04:45:34.939Z,4.85
2022-08-17T04:48:02.153Z,4.65
2022-08-17T04:50:29.283Z,5.72
2022-08-17T04:52:56.806Z,4.60
2022-08-17T04:55:24.277Z,4.90
2022-08-17T04:57:51.473Z,5.32
2022-08-17T05:00:18.746Z,4.88
2022-08-17T05:02:49.969Z,4.88
2022-08-17T05:05:22.637Z,4.68
2022-08-17T05:07:52.323Z,4.45
2022-08-17T05:10:20.144Z,4.30
2022-08-17T05:12:47.446Z,4.28
2022-08-17T05:15:16.333Z,3.80
2022-08-17T05:17:44.501Z,4.07
2022-08-17T05:20:11.794Z,4.85
2022-08-17T05:22:47.392Z,4.15
2022-08-17T05:25:14.573Z,4.13
2022-08-17T05:27:42.226Z,4.38
2022-08-17T05:30:11.234Z,3.85
2022-08-17T05:32:40.368Z,4.10
2022-08-17T05:35:08.345Z,4.10
2022-08-17T05:37:35.539Z,3.90
2022-08-17T05:40:02.729Z,3.83
2022-08-17T05:42:29.990Z,4.07
2022-08-17T05:45:00.308Z,3.65
2022-08-17T05:47:27.879Z,4.45
2022-08-17T05:49:55.531Z,4.00
2022-08-17T05:52:41.505Z,3.60
2022-08-17T05:55:08.599Z,4.38
2022-08-17T05:57:55.907Z,4.07
2022-08-17T06:00:30.854Z,3.80
2022-08-17T06:05:41.086Z,3.78
2022-08-17T06:08:26.846Z,4.13
2022-08-17T06:10:54.191Z,3.78
2022-08-17T06:13:27.525Z,3.80
2022-08-17T06:16:02.672Z,3.67
2022-08-17T06:18:37.083Z,4.32
2022-08-17T06:21:06.100Z,3.92
2022-08-17T06:23:35.593Z,3.35
2022-08-17T06:26:06.591Z,3.65
2022-08-17T06:28:39.564Z,4.10
2022-08-17T06:31:12.596Z,4.20
2022-08-17T06:33:41.179Z,3.65
2022-08-17T06:36:29.311Z,3.47
2022-08-17T06:39:15.675Z,3.40
2022-08-17T06:41:43.539Z,3.63
2022-08-17T06:44:10.653Z,3.50
2022-08-17T06:46:40.974Z,3.47
2022-08-17T06:49:14.954Z,3.20
2022-08-17T06:51:46.258Z,3.67
2022-08-17T06:54:22.672Z,3.83
2022-08-17T06:56:57.315Z,3.85
2022-08-17T06:59:54.986Z,4.45
2022-08-17T07:02:29.108Z,3.88
2022-08-17T07:05:16.259Z,3.80
2022-08-17T07:08:03.835Z,3.30
2022-08-17T07:11:00.400Z,3.65
2022-08-17T07:13:51.505Z,3.50
2022-08-17T07:16:28.644Z,3.38
2022-08-17T07:18:57.282Z,3.30
2022-08-17T07:21:43.442Z,3.10
2022-08-17T07:24:30.805Z,2.80
2022-08-17T07:27:10.102Z,3.03
2022-08-17T07:29:42.075Z,2.60
2022-08-17T07:32:10.630Z,2.85
2022-08-17T07:34:56.699Z,3.13
2022-08-17T07:37:23.861Z,2.53
2022-08-17T07:39:59.554Z,2.90
2022-08-17T07:42:41.819Z,2.50
2022-08-17T07:45:31.718Z,2.72
2022-08-17T07:48:17.314Z,2.80
2022-08-17T07:50:49.397Z,2.50
2022-08-17T07:55:45.443Z,2.60
2022-08-17T07:58:20.432Z,3.13
2022-08-17T08:01:06.934Z,3.00
2022-08-17T08:03:34.263Z,3.13
2022-08-17T08:06:03.057Z,3.15
2022-08-17T08:08:44.957Z,3.08
2022-08-17T08:11:15.351Z,3.47
2022-08-17T08:13:45.059Z,3.08
2022-08-17T08:16:19.965Z,3.22
2022-08-17T08:18:54.772Z,3.40
2022-08-17T08:21:28.333Z,3.03
2022-08-17T08:24:01.451Z,3.20
2022-08-17T08:29:06.775Z,3.20
2022-08-17T08:31:49.196Z,3.33
2022-08-17T08:34:44.977Z,3.22
2022-08-17T08:37:35.733Z,3.85
2022-08-17T08:40:23.863Z,3.10
2022-08-17T08:42:57.515Z,2.75
2022-08-17T08:45:39.553Z,3.00
2022-08-17T08:48:52.910Z,2.75
2022-08-17T08:51:12.633Z,2.80
2022-08-17T08:53:44.220Z,2.63
2022-08-17T08:56:22.494Z,3.63
2022-08-17T08:58:54.815Z,3.40
2022-08-17T09:01:42.285Z,3.25
2022-08-17T09:04:28.703Z,3.13
2022-08-17T09:07:02.811Z,3.38
2022-08-17T09:09:42.131Z,3.30
2022-08-17T09:12:15.219Z,3.60
2022-08-17T09:17:16.413Z,2.95
2022-08-17T09:19:49.125Z,3.22
2022-08-17T09:22:31.708Z,3.33
2022-08-17T09:25:11.348Z,3.17
2022-08-17T09:27:47.525Z,3.20
2022-08-17T09:30:14.771Z,3.90
2022-08-17T09:32:43.923Z,3.42
2022-08-17T09:35:36.789Z,3.05
2022-08-17T09:38:16.653Z,3.77
2022-08-17T09:40:47.803Z,3.47
2022-08-17T09:43:33.559Z,3.55
2022-08-17T09:46:19.227Z,3.10
2022-08-17T09:48:55.435Z,3.33
2022-08-17T09:51:35.745Z,3.25
2022-08-17T09:54:34.949Z,3.17
2022-08-17T09:57:25.737Z,3.55
2022-08-17T09:59:44.744Z,4.05
2022-08-17T10:02:25.398Z,3.30
2022-08-17T10:04:55.322Z,3.33
2022-08-17T10:07:28.591Z,4.20
2022-08-17T10:10:02.759Z,3.47
2022-08-17T10:12:47.351Z,3.60
2022-08-17T10:15:18.811Z,3.47
2022-08-17T10:17:56.287Z,3.05
2022-08-17T10:20:37.929Z,3.22
2022-08-17T10:23:27.770Z,3.40
2022-08-17T10:26:15.031Z,3.80
2022-08-17T10:29:02.892Z,3.80
2022-08-17T10:31:35.359Z,3.90
2022-08-17T10:34:06.148Z,3.60
2022-08-17T10:36:48.987Z,4.10
2022-08-17T10:39:51.810Z,3.72
2022-08-17T10:42:33.203Z,4.32
2022-08-17T10:45:06.591Z,3.95
2022-08-17T10:47:55.594Z,4.18
2022-08-17T10:50:52.628Z,3.55
2022-08-17T10:53:32.077Z,3.70
2022-08-17T10:56:14.375Z,4.28
2022-08-17T10:58:55.310Z,4.05
2022-08-17T11:01:35.380Z,3.80
2022-08-17T11:04:12.062Z,4.20
2022-08-17T11:06:52.178Z,4.32
2022-08-17T11:09:19.946Z,4.57
2022-08-17T11:11:56.457Z,4.93
2022-08-17T11:14:31.129Z,4.60
2022-08-17T11:16:58.292Z,4.70
2022-08-17T11:19:26.336Z,4.38
2022-08-17T11:22:31.303Z,4.60
2022-08-17T11:25:13.521Z,4.78
2022-08-17T11:27:40.941Z,4.50
2022-08-17T11:30:34.587Z,4.18
2022-08-17T11:33:22.068Z,4.35
2022-08-17T11:35:52.616Z,4.55
2022-08-17T11:38:31.287Z,4.70
2022-08-17T11:41:09.210Z,4.35
2022-08-17T11:43:51.398Z,4.38
2022-08-17T11:46:25.493Z,4.07
2022-08-17T11:49:31.086Z,4.22
2022-08-17T11:52:01.320Z,4.60
2022-08-17T11:54:36.200Z,4.53
2022-08-17T11:57:21.993Z,4.85
2022-08-17T11:59:49.178Z,4.82
2022-08-17T12:02:31.739Z,4.38
2022-08-17T12:05:04.991Z,4.63
2022-08-17T12:07:43.526Z,4.47
2022-08-17T12:10:12.318Z,4.50
2022-08-17T12:12:43.458Z,4.35
2022-08-17T12:15:17.335Z,4.40
2022-08-17T12:17:53.007Z,4.18
2022-08-17T12:20:22.115Z,4.35
2022-08-17T12:23:00.824Z,3.95
2022-08-17T12:25:34.801Z,4.32
2022-08-17T12:28:06.139Z,4.38
2022-08-17T12:30:35.444Z,3.70
2022-08-17T12:33:02.886Z,4.25
2022-08-17T12:35:33.203Z,3.90
2022-08-17T12:38:01.192Z,3.78
2022-08-17T12:40:31.425Z,3.78
2022-08-17T12:43:22.014Z,3.85
2022-08-17T12:45:57.095Z,3.80
2022-08-17T12:48:25.755Z,3.95
2022-08-17T12:50:53.220Z,3.85
2022-08-17T12:53:24.996Z,4.40
2022-08-17T12:55:52.863Z,4.38
2022-08-17T12:58:22.563Z,4.38
2022-08-17T13:00:51.398Z,4.00
2022-08-17T13:03:20.939Z,4.35
2022-08-17T13:05:59.169Z,4.70
2022-08-17T13:08:29.222Z,5.00
2022-08-17T13:11:00.620Z,4.70
2022-08-17T13:13:32.914Z,4.10
2022-08-17T13:16:01.775Z,5.75
2022-08-17T13:18:36.088Z,4.70
2022-08-17T13:21:03.259Z,4.55
2022-08-17T13:23:31.419Z,4.13
2022-08-17T13:26:04.362Z,4.20
2022-08-17T13:28:35.593Z,4.60
2022-08-17T13:31:24.009Z,4.40
2022-08-17T13:33:51.180Z,4.30
2022-08-17T13:36:33.360Z,4.47
2022-08-17T13:39:21.262Z,3.72
2022-08-17T13:41:49.438Z,3.88
2022-08-17T13:44:35.158Z,3.83
2022-08-17T13:47:02.822Z,4.10
2022-08-17T13:49:41.889Z,4.25
2022-08-17T13:52:35.078Z,3.92
2022-08-17T13:55:08.202Z,4.32
2022-08-17T13:57:36.203Z,3.65
2022-08-17T14:00:32.779Z,3.65
2022-08-17T14:03:04.328Z,4.00
2022-08-17T14:05:32.441Z,4.28
2022-08-17T14:08:01.396Z,3.88
2022-08-17T14:10:29.795Z,4.50
2022-08-17T14:12:57.322Z,4.18
2022-08-17T14:15:56.091Z,4.13
2022-08-17T14:18:14.281Z,3.30
2022-08-17T14:20:41.462Z,3.28
2022-08-17T14:23:08.627Z,3.53
2022-08-17T14:25:35.847Z,3.60
2022-08-17T14:28:07.674Z,3.38
2022-08-17T14:30:35.767Z,3.88
2022-08-17T14:33:03.093Z,2.85
2022-08-17T14:35:30.781Z,3.40
2022-08-17T14:37:58.419Z,3.58
2022-08-17T14:40:25.897Z,3.80
2022-08-17T14:42:55.125Z,3.75
2022-08-17T14:45:31.510Z,4.03
2022-08-17T14:47:59.593Z,4.00
2022-08-17T14:50:27.188Z,4.05
2022-08-17T14:52:58.176Z,4.40
2022-08-17T14:55:26.500Z,4.15
2022-08-17T14:57:53.687Z,3.83
2022-08-17T15:00:20.867Z,4.05
2022-08-17T15:02:55.095Z,4.00
2022-08-17T15:05:24.548Z,4.20
2022-08-17T15:07:53.276Z,4.22
2022-08-17T15:10:20.731Z,4.45
2022-08-17T15:12:48.460Z,4.25
2022-08-17T15:15:21.299Z,3.90
2022-08-17T15:17:48.936Z,4.32
2022-08-17T15:20:27.991Z,3.88
2022-08-17T15:22:56.216Z,3.70
2022-08-17T15:25:24.251Z,3.60
2022-08-17T15:27:51.810Z,3.45
2022-08-17T15:30:19.311Z,3.95
2022-08-17T15:32:51.210Z,3.78
2022-08-17T15:35:26.904Z,4.15
2022-08-17T15:37:55.052Z,3.80
2022-08-17T15:40:22.233Z,3.50
2022-08-17T15:42:50.416Z,3.97
2022-08-17T15:45:22.496Z,3.83
2022-08-17T15:47:49.755Z,3.90
2022-08-17T15:50:17.148Z,4.07
2022-08-17T15:52:44.997Z,4.53
2022-08-17T15:55:13.539Z,3.63
2022-08-17T15:57:40.944Z,3.55
2022-08-17T16:00:09.265Z,3.60
2022-08-17T16:03:15.958Z,3.47
2022-08-17T16:05:25.198Z,3.35
2022-08-17T16:07:53.555Z,3.95
2022-08-17T16:10:21.309Z,4.07
2022-08-17T16:12:50.085Z,3.97
2022-08-17T16:15:18.788Z,3.70
2022-08-17T16:17:45.987Z,3.55
2022-08-17T16:20:20.678Z,3.60
2022-08-17T16:22:48.762Z,3.78
2022-08-17T16:25:18.774Z,3.38
2022-08-17T16:27:46.967Z,3.47
2022-08-17T16:30:18.228Z,3.50
2022-08-17T16:32:45.545Z,3.42
2022-08-17T16:35:17.408Z,3.60
2022-08-17T16:37:45.682Z,3.60
2022-08-17T16:40:13.550Z,3.55
2022-08-17T16:42:40.809Z,3.92
2022-08-17T16:45:13.069Z,3.60
2022-08-17T16:47:41.858Z,4.15
2022-08-17T16:50:10.232Z,3.63
2022-08-17T16:52:37.780Z,4.15
2022-08-17T16:55:06.341Z,3.78
2022-08-17T16:57:34.437Z,3.78
2022-08-17T17:00:01.613Z,3.80
2022-08-17T17:02:36.635Z,3.90
2022-08-17T17:05:22.654Z,3.90
2022-08-17T17:07:55.992Z,4.30
2022-08-17T17:10:24.653Z,4.07
2022-08-17T17:13:01.571Z,3.53
2022-08-17T17:15:40.382Z,3.60
2022-08-17T17:18:12.275Z,4.15
2022-08-17T17:20:45.816Z,3.92
2022-08-17T17:23:34.667Z,3.63
2022-08-17T17:26:20.663Z,3.50
2022-08-17T17:28:53.970Z,3.63
2022-08-17T17:31:23.865Z,3.72
2022-08-17T17:33:54.122Z,3.90
2022-08-17T17:36:33.563Z,3.70
2022-08-17T17:39:10.634Z,4.35
2022-08-17T17:41:42.634Z,3.90
2022-08-17T17:44:12.424Z,4.20
2022-08-17T17:46:49.071Z,3.60
2022-08-17T17:49:17.268Z,3.63
2022-08-17T17:52:09.262Z,3.47
2022-08-17T17:54:54.027Z,3.58
2022-08-17T17:57:31.557Z,4.30
2022-08-17T18:00:04.820Z,3.75
2022-08-17T18:02:47.368Z,3.60
2022-08-17T18:05:38.795Z,4.15
2022-08-17T18:08:16.951Z,3.80
2022-08-17T18:10:44.916Z,3.72
2022-08-17T18:13:27.883Z,4.00
2022-08-17T18:16:00.628Z,3.80
2022-08-17T18:18:38.353Z,4.43
2022-08-17T18:21:07.612Z,3.97
2022-08-17T18:23:34.874Z,4.25
2022-08-17T18:26:02.491Z,4.45
2022-08-17T18:28:38.907Z,4.05
2022-08-17T18:31:16.445Z,3.80
2022-08-17T18:33:45.215Z,4.25
2022-08-17T18:36:13.119Z,3.83
2022-08-17T18:38:41.951Z,3.53
2022-08-17T18:41:30.716Z,4.22
2022-08-17T18:44:00.621Z,3.88
2022-08-17T18:46:28.682Z,3.78
2022-08-17T18:48:58.990Z,3.85
2022-08-17T18:51:42.883Z,4.10
2022-08-17T18:54:18.567Z,3.80
2022-08-17T18:56:57.399Z,4.43
2022-08-17T18:59:30.971Z,3.60
2022-08-17T19:01:59.988Z,4.22
2022-08-17T19:04:34.020Z,3.67
2022-08-17T19:07:08.292Z,3.88
2022-08-17T19:09:47.646Z,4.53
2022-08-17T19:12:27.492Z,3.95
2022-08-17T19:14:56.205Z,3.72
2022-08-17T19:17:26.907Z,3.80
2022-08-17T19:20:03.533Z,4.53
2022-08-17T19:22:39.200Z,5.60
2022-08-17T19:25:19.473Z,4.75
2022-08-17T19:27:57.430Z,4.28
2022-08-17T19:30:25.959Z,3.83
2022-08-17T19:32:53.447Z,4.55
2022-08-17T19:35:22.227Z,4.38
2022-08-17T19:37:52.667Z,4.13
2022-08-17T19:40:54.590Z,4.38
2022-08-17T19:43:27.992Z,4.63
2022-08-17T19:46:02.267Z,4.10
2022-08-17T19:48:39.924Z,4.00
2022-08-17T19:51:10.085Z,3.92
2022-08-17T19:54:06.682Z,4.50
2022-08-17T19:56:47.514Z,4.50
2022-08-17T19:59:23.856Z,4.60
2022-08-17T20:01:53.607Z,4.90
2022-08-17T20:04:32.228Z,4.60
2022-08-17T20:07:04.767Z,4.70
2022-08-17T20:09:37.464Z,4.55
2022-08-17T20:12:07.272Z,4.60
2022-08-17T20:14:53.680Z,4.50
2022-08-17T20:17:23.338Z,4.68
2022-08-17T20:19:52.214Z,4.10
2022-08-17T20:22:25.526Z,4.13
2022-08-17T20:25:03.460Z,4.78
2022-08-17T20:27:32.557Z,4.70
2022-08-17T20:29:59.819Z,5.10
2022-08-17T20:32:28.463Z,5.10
2022-08-17T20:35:04.351Z,5.45
2022-08-17T20:37:33.457Z,4.35
2022-08-17T20:40:00.827Z,4.50
2022-08-17T20:42:29.724Z,4.93
2022-08-17T20:45:05.704Z,4.60
2022-08-17T20:47:35.131Z,4.07
2022-08-17T20:50:11.368Z,4.53
2022-08-17T20:52:44.772Z,4.55
2022-08-17T20:55:52.009Z,4.88
2022-08-17T20:58:30.878Z,5.18
2022-08-17T21:01:01.531Z,4.82
2022-08-17T21:03:39.954Z,4.88
2022-08-17T21:06:18.186Z,4.25
2022-08-17T21:08:53.451Z,4.32
2022-08-17T21:11:56.919Z,4.38
2022-08-17T21:14:31.050Z,4.68
2022-08-17T21:16:58.667Z,4.32
2022-08-17T21:19:48.980Z,4.50
2022-08-17T21:22:37.386Z,4.50
2022-08-17T21:25:09.877Z,4.60
2022-08-17T21:27:55.923Z,5.40
2022-08-17T21:30:42.688Z,4.55
2022-08-17T21:33:11.908Z,4.40
2022-08-17T21:35:49.290Z,4.40
2022-08-17T21:38:19.403Z,4.18
2022-08-17T21:40:50.020Z,4.45
2022-08-17T21:43:17.606Z,4.85
2022-08-17T21:45:54.343Z,4.40
2022-08-17T21:48:24.005Z,4.60
2022-08-17T21:50:57.757Z,4.05
2022-08-17T21:53:32.203Z,4.60
2022-08-17T21:56:00.003Z,4.32
2022-08-17T21:58:35.066Z,4.65
2022-08-17T22:01:21.150Z,4.47
2022-08-17T22:03:57.108Z,3.97
2022-08-17T22:06:26.571Z,4.03
2022-08-17T22:09:20.234Z,3.90
2022-08-17T22:12:07.926Z,4.60
2022-08-17T22:14:52.821Z,4.25
2022-08-17T22:17:21.078Z,4.95
2022-08-17T22:19:50.261Z,6.25
2022-08-17T22:22:28.698Z,6.13
2022-08-17T22:25:01.368Z,6.78
2022-08-17T22:27:45.750Z,5.40
2022-08-17T22:30:42.327Z,6.00
2022-08-17T22:33:28.184Z,6.35
2022-08-17T22:36:14.143Z,6.47
2022-08-17T22:38:43.520Z,6.10
2022-08-17T22:41:17.382Z,5.85
2022-08-17T22:43:45.028Z,5.75
2022-08-17T22:46:12.783Z,6.65
2022-08-17T22:48:46.962Z,6.55
2022-08-17T22:51:15.442Z,6.20
2022-08-17T22:54:05.846Z,6.10
2022-08-17T22:56:51.844Z,6.13
2022-08-17T22:59:37.982Z,6.60
2022-08-17T23:02:22.857Z,6.50
2022-08-17T23:05:16.804Z,6.78
2022-08-17T23:07:45.133Z,8.45
2022-08-17T23:10:13.021Z,7.88
2022-08-17T23:12:40.550Z,7.38
2022-08-17T23:15:15.608Z,7.18
2022-08-17T23:17:43.051Z,7.50
2022-08-17T23:20:13.524Z,6.50
2022-08-17T23:22:51.410Z,7.82
2022-08-17T23:25:25.219Z,7.28
2022-08-17T23:27:52.652Z,7.63
2022-08-17T23:30:20.065Z,7.32
2022-08-17T23:32:53.396Z,8.30
2022-08-17T23:35:39.759Z,7.57
2022-08-17T23:38:08.730Z,7.38
2022-08-17T23:40:35.956Z,7.55
2022-08-17T23:43:11.419Z,7.47
2022-08-17T23:45:52.700Z,7.65
2022-08-17T23:48:28.652Z,7.90
2022-08-17T23:51:04.069Z,8.00
2022-08-17T23:53:34.257Z,7.30
2022-08-17T23:56:09.416Z,6.80
2022-08-17T23:58:38.597Z,6.88
